createdAt,value
2023-02-25T00:00:50.652Z,61.10
2023-02-25T00:03:21.721Z,62.10
2023-02-25T00:05:52.967Z,78.30
2023-02-25T00:08:24.909Z,81.30
2023-02-25T00:11:04.906Z,80.30
2023-02-25T00:13:36.341Z,80.70
2023-02-25T00:16:10.919Z,73.90
2023-02-25T00:18:46.793Z,72.90
2023-02-25T00:21:18.506Z,78.70
2023-02-25T00:23:50.441Z,80.70
2023-02-25T00:26:22.342Z,76.50
2023-02-25T00:28:54.252Z,79.70
2023-02-25T00:31:26.845Z,74.30
2023-02-25T00:33:57.868Z,69.00
2023-02-25T00:36:29.084Z,74.60
2023-02-25T00:39:03.185Z,75.90
2023-02-25T00:41:34.833Z,72.90
2023-02-25T00:44:07.495Z,75.00
2023-02-25T00:46:38.859Z,77.70
2023-02-25T00:49:10.197Z,78.30
2023-02-25T00:51:41.191Z,77.70
2023-02-25T00:54:12.506Z,83.40
2023-02-25T00:56:44.569Z,76.80
2023-02-25T00:59:15.703Z,82.40
2023-02-25T01:01:47.705Z,76.90
2023-02-25T01:04:19.534Z,78.70
2023-02-25T01:06:50.790Z,82.70
2023-02-25T01:09:22.590Z,82.20
2023-02-25T01:11:53.764Z,73.50
2023-02-25T01:14:26.304Z,75.60
2023-02-25T01:17:00.543Z,74.40
2023-02-25T01:19:31.623Z,66.10
2023-02-25T01:22:02.812Z,64.10
2023-02-25T01:24:36.032Z,61.60
2023-02-25T01:27:07.284Z,58.60
2023-02-25T01:29:41.712Z,60.30
2023-02-25T01:32:15.749Z,58.50
2023-02-25T01:34:47.188Z,59.20
2023-02-25T01:37:18.447Z,62.60
2023-02-25T01:39:49.825Z,61.30
2023-02-25T01:42:24.151Z,68.30
2023-02-25T01:45:32.833Z,60.70
2023-02-25T01:48:24.106Z,62.40
2023-02-25T01:51:05.516Z,53.80
2023-02-25T01:53:43.550Z,59.80
2023-02-25T01:56:20.867Z,58.70
2023-02-25T01:58:54.028Z,58.50
2023-02-25T02:01:30.040Z,52.80
2023-02-25T02:04:04.589Z,60.40
2023-02-25T02:06:41.758Z,51.50
2023-02-25T02:09:21.069Z,54.90
2023-02-25T02:11:52.023Z,51.40
2023-02-25T02:14:29.716Z,50.10
2023-02-25T02:17:09.514Z,55.20
2023-02-25T02:19:52.402Z,53.10
2023-02-25T02:22:53.895Z,52.50
2023-02-25T02:26:37.378Z,53.90
2023-02-25T02:29:39.600Z,57.20
2023-02-25T02:32:26.573Z,59.30
2023-02-25T02:35:27.728Z,63.80
2023-02-25T02:38:31.272Z,66.30
2023-02-25T02:41:05.710Z,63.00
2023-02-25T02:44:38.040Z,64.00
2023-02-25T02:47:20.238Z,62.10
2023-02-25T02:50:10.873Z,51.90
2023-02-25T02:52:46.953Z,56.20
2023-02-25T02:55:39.247Z,57.10
2023-02-25T02:58:18.237Z,53.60
2023-02-25T03:00:55.829Z,51.00
2023-02-25T03:03:39.611Z,56.50
2023-02-25T03:06:20.421Z,49.60
2023-02-25T03:09:00.700Z,49.60
2023-02-25T03:11:36.442Z,52.60
2023-02-25T03:14:08.876Z,53.60
2023-02-25T03:16:53.755Z,52.70
2023-02-25T03:19:35.829Z,54.80
2023-02-25T03:22:16.023Z,55.60
2023-02-25T03:25:05.730Z,54.30
2023-02-25T03:27:43.819Z,51.10
2023-02-25T03:30:39.556Z,55.40
2023-02-25T03:33:48.782Z,53.70
2023-02-25T03:36:59.764Z,57.20
2023-02-25T03:39:36.338Z,55.20
2023-02-25T03:42:12.461Z,54.40
2023-02-25T03:45:00.994Z,60.10
2023-02-25T03:47:37.700Z,59.20
2023-02-25T03:50:21.904Z,55.50
2023-02-25T03:52:58.263Z,57.60
2023-02-25T03:55:50.826Z,56.10
2023-02-25T03:58:22.844Z,59.40
2023-02-25T04:00:58.400Z,58.00
2023-02-25T04:03:29.745Z,58.30
2023-02-25T04:06:01.596Z,59.50
2023-02-25T04:08:32.668Z,65.30
2023-02-25T04:11:02.382Z,58.80
2023-02-25T04:13:33.824Z,54.50
2023-02-25T04:16:05.498Z,45.40
2023-02-25T04:18:37.139Z,62.50
2023-02-25T04:21:10.728Z,57.00
2023-02-25T04:23:42.001Z,58.20
2023-02-25T04:26:12.829Z,57.70
2023-02-25T04:28:43.706Z,59.60
2023-02-25T04:31:14.890Z,53.90
2023-02-25T04:33:49.795Z,56.10
2023-02-25T04:36:32.123Z,60.90
2023-02-25T04:39:05.694Z,57.60
2023-02-25T04:41:37.153Z,58.00
2023-02-25T04:44:09.229Z,60.90
2023-02-25T04:46:41.870Z,59.10
2023-02-25T04:49:13.253Z,59.80
2023-02-25T04:51:44.643Z,58.20
2023-02-25T04:54:16.015Z,63.50
2023-02-25T04:56:48.329Z,63.80
2023-02-25T04:59:19.388Z,65.90
2023-02-25T05:01:50.726Z,67.60
2023-02-25T05:04:20.640Z,66.50
2023-02-25T05:19:47.001Z,55.20
2023-02-25T05:26:36.861Z,58.20
2023-02-25T05:29:51.638Z,56.40
2023-02-25T05:36:41.167Z,56.90
2023-02-25T05:47:15.277Z,57.90
2023-02-25T05:50:21.002Z,64.00
2023-02-25T05:57:08.657Z,60.50
2023-02-25T06:08:05.018Z,62.00
2023-02-25T06:11:23.753Z,60.10
2023-02-25T06:31:25.026Z,61.90
2023-02-25T06:42:32.197Z,52.40
2023-02-25T06:57:23.976Z,53.60
2023-02-25T07:08:10.391Z,50.00
2023-02-25T07:23:27.465Z,59.50
2023-02-25T07:30:17.659Z,55.40
2023-02-25T07:41:14.016Z,56.70
2023-02-25T07:48:03.979Z,56.10
2023-02-25T07:51:09.484Z,56.50
2023-02-25T07:57:59.122Z,53.60
2023-02-25T08:01:05.632Z,51.00
2023-02-25T08:07:55.706Z,52.10
2023-02-25T08:11:00.852Z,49.60
2023-02-25T08:22:12.064Z,46.50
2023-02-25T08:33:21.163Z,55.80
2023-02-25T08:36:28.638Z,47.10
2023-02-25T08:43:18.119Z,46.80
2023-02-25T08:54:15.685Z,42.70
2023-02-25T09:04:55.491Z,28.80
2023-02-25T09:19:49.287Z,31.80
2023-02-25T09:30:58.351Z,32.00
2023-02-25T09:37:47.093Z,28.70
2023-02-25T09:53:02.536Z,33.40
2023-02-25T09:59:56.287Z,29.40
2023-02-25T10:03:20.244Z,27.50
2023-02-25T10:14:48.656Z,32.70
2023-02-25T10:27:07.621Z,30.00
2023-02-25T10:38:22.399Z,28.10
2023-02-25T10:49:21.137Z,25.40
2023-02-25T10:56:16.094Z,26.30
2023-02-25T11:04:01.535Z,27.50
2023-02-25T11:24:36.499Z,32.10
2023-02-25T11:44:46.560Z,33.50
2023-02-25T11:48:39.594Z,30.40
2023-02-25T12:07:55.434Z,38.50
2023-02-25T12:11:05.597Z,32.10
2023-02-25T14:17:19.263Z,37.50
2023-02-25T14:20:20.160Z,33.20
2023-02-25T14:23:16.422Z,36.50
2023-02-25T14:27:05.135Z,33.90
2023-02-25T14:30:44.036Z,37.00
2023-02-25T14:34:01.355Z,33.90
2023-02-25T14:37:30.207Z,38.70
2023-02-25T14:44:19.995Z,38.80
2023-02-25T15:02:07.902Z,38.20
2023-02-25T15:05:21.172Z,33.60
2023-02-25T15:08:08.240Z,37.00
2023-02-25T15:10:54.723Z,39.90
2023-02-25T15:14:31.731Z,38.70
2023-02-25T15:20:42.380Z,41.60
2023-02-25T15:23:51.166Z,38.00
2023-02-25T16:24:36.038Z,45.70
2023-02-25T16:49:32.259Z,50.80
2023-02-25T17:00:27.371Z,54.40
2023-02-25T17:20:05.454Z,59.30
2023-02-25T17:35:29.108Z,48.40
2023-02-25T17:46:54.463Z,54.50
2023-02-25T18:02:27.756Z,59.10
2023-02-25T18:35:55.759Z,69.80
2023-02-25T18:47:12.402Z,68.40
2023-02-25T18:50:20.305Z,75.80
2023-02-25T19:01:35.101Z,69.20
2023-02-25T19:12:49.619Z,71.90
2023-02-25T19:28:13.524Z,70.40
2023-02-25T19:39:16.023Z,79.90
2023-02-25T19:46:07.303Z,72.70
2023-02-25T19:52:58.447Z,77.20
2023-02-25T20:10:14.528Z,88.50
2023-02-25T20:28:24.983Z,72.10
2023-02-25T21:04:48.618Z,68.10
2023-02-25T21:14:17.110Z,73.10
2023-02-25T21:43:32.479Z,83.20
2023-02-25T22:11:42.101Z,69.70
